Time,TemperatureF,DewpointF,PressureIn,WindDirection,WindDirectionDegrees,WindSpeedMPH,WindSpeedGustMPH,Humidity,HourlyPrecipIn,Conditions,Clouds,dailyrainin,SoftwareType,DateUTC
2013-06-25 00:00:00,75.9,71.8,30.19,West,276,0.0,0.0,87,0.00,,,0.00,Wunderground v.1.15,2013-06-25 04:00:00,
2013-06-25 00:05:00,75.8,71.7,30.19,West,276,0.0,0.0,87,0.00,,,0.00,Wunderground v.1.15,2013-06-25 04:05:00,
2013-06-25 00:10:00,75.7,71.6,30.19,West,276,0.0,0.0,87,0.00,,,0.00,Wunderground v.1.15,2013-06-25 04:10:00,
2013-06-25 00:15:00,75.7,71.9,30.19,West,276,0.0,0.0,88,0.00,,,0.00,Wunderground v.1.15,2013-06-25 04:15:00,
2013-06-25 00:20:00,75.6,71.8,30.19,West,276,0.0,0.0,88,0.00,,,0.00,Wunderground v.1.15,2013-06-25 04:20:00,
2013-06-25 00:25:00,75.6,72.1,30.19,West,276,0.0,0.0,89,0.00,,,0.00,Wunderground v.1.15,2013-06-25 04:25:00,
2013-06-25 00:35:00,75.4,71.9,30.18,West,276,0.0,0.0,89,0.00,,,0.00,Wunderground v.1.15,2013-06-25 04:35:00,
2013-06-25 00:40:00,75.2,71.7,30.19,West,276,0.0,0.0,89,0.00,,,0.00,Wunderground v.1.15,2013-06-25 04:40:00,
2013-06-25 00:45:00,75.1,71.6,30.19,West,276,0.0,0.0,89,0.00,,,0.00,Wunderground v.1.15,2013-06-25 04:45:00,
2013-06-25 00:50:00,75.0,71.5,30.19,West,276,0.0,0.0,89,0.00,,,0.00,Wunderground v.1.15,2013-06-25 04:50:00,
2013-06-25 00:55:00,74.9,71.4,30.18,West,276,0.0,0.0,89,0.00,,,0.00,Wunderground v.1.15,2013-06-25 04:55:00,
2013-06-25 01:00:00,74.8,71.3,30.18,West,276,0.0,0.0,89,0.00,,,0.00,Wunderground v.1.15,2013-06-25 05:00:00,
2013-06-25 01:05:00,74.8,71.3,30.19,West,276,0.0,0.0,89,0.00,,,0.00,Wunderground v.1.15,2013-06-25 05:05:00,
2013-06-25 01:10:00,74.7,71.2,30.18,West,276,0.0,0.0,89,0.00,,,0.00,Wunderground v.1.15,2013-06-25 05:10:00,
2013-06-25 01:15:00,74.6,71.1,30.18,West,276,0.0,0.0,89,0.00,,,0.00,Wunderground v.1.15,2013-06-25 05:15:00,
2013-06-25 01:20:00,74.5,71.0,30.18,West,276,0.0,0.0,89,0.00,,,0.00,Wunderground v.1.15,2013-06-25 05:20:00,
2013-06-25 01:25:00,74.4,70.9,30.18,West,276,0.0,0.0,89,0.00,,,0.00,Wunderground v.1.15,2013-06-25 05:25:00,
2013-06-25 01:30:00,74.3,70.8,30.17,West,276,0.0,0.0,89,0.00,,,0.00,Wunderground v.1.15,2013-06-25 05:30:00,
2013-06-25 01:35:00,74.3,71.2,30.17,West,276,0.0,0.0,90,0.00,,,0.00,Wunderground v.1.15,2013-06-25 05:35:00,
2013-06-25 01:45:00,74.2,71.1,30.17,West,276,0.0,0.0,90,0.00,,,0.00,Wunderground v.1.15,2013-06-25 05:45:00,
2013-06-25 01:50:00,74.2,71.1,30.16,West,276,0.0,0.0,90,0.00,,,0.00,Wunderground v.1.15,2013-06-25 05:50:00,
2013-06-25 01:55:00,74.2,71.1,30.16,West,276,0.0,0.0,90,0.00,,,0.00,Wunderground v.1.15,2013-06-25 05:55:00,
2013-06-25 02:00:00,74.2,71.1,30.16,West,276,0.0,0.0,90,0.00,,,0.00,Wunderground v.1.15,2013-06-25 06:00:00,
2013-06-25 02:05:00,74.1,71.0,30.16,West,276,0.0,0.0,90,0.00,,,0.00,Wunderground v.1.15,2013-06-25 06:05:00,
2013-06-25 02:10:00,74.1,71.3,30.15,West,276,0.0,0.0,91,0.00,,,0.00,Wunderground v.1.15,2013-06-25 06:10:00,
2013-06-25 02:15:00,74.1,71.3,30.15,West,276,0.0,0.0,91,0.00,,,0.00,Wunderground v.1.15,2013-06-25 06:15:00,
2013-06-25 02:20:00,74.1,71.3,30.15,West,276,0.0,0.0,91,0.00,,,0.00,Wunderground v.1.15,2013-06-25 06:20:00,
2013-06-25 02:25:00,74.0,71.2,30.14,West,276,0.0,0.0,91,0.00,,,0.00,Wunderground v.1.15,2013-06-25 06:25:00,
2013-06-25 02:30:00,73.9,71.1,30.15,West,276,0.0,0.0,91,0.00,,,0.00,Wunderground v.1.15,2013-06-25 06:30:00,
2013-06-25 02:35:00,73.9,71.1,30.15,West,276,0.0,0.0,91,0.00,,,0.00,Wunderground v.1.15,2013-06-25 06:35:00,
2013-06-25 02:45:00,73.8,71.0,30.14,West,276,0.0,0.0,91,0.00,,,0.00,Wunderground v.1.15,2013-06-25 06:45:00,
2013-06-25 02:50:00,73.7,70.9,30.14,West,276,0.0,0.0,91,0.00,,,0.00,Wunderground v.1.15,2013-06-25 06:50:00,
2013-06-25 02:55:00,73.7,71.2,30.14,West,276,0.0,0.0,92,0.00,,,0.00,Wunderground v.1.15,2013-06-25 06:55:00,
2013-06-25 03:00:00,73.6,71.1,30.14,West,276,0.0,0.0,92,0.00,,,0.00,Wunderground v.1.15,2013-06-25 07:00:00,
2013-06-25 03:05:00,73.6,71.1,30.14,West,276,0.0,0.0,92,0.00,,,0.00,Wunderground v.1.15,2013-06-25 07:05:00,
2013-06-25 03:10:00,73.5,71.0,30.14,West,276,0.0,0.0,92,0.00,,,0.00,Wunderground v.1.15,2013-06-25 07:10:00,
2013-06-25 03:15:00,73.5,71.0,30.15,West,276,0.0,0.0,92,0.00,,,0.00,Wunderground v.1.15,2013-06-25 07:15:00,
2013-06-25 03:20:00,73.6,71.1,30.14,West,276,0.0,0.0,92,0.00,,,0.00,Wunderground v.1.15,2013-06-25 07:20:00,
2013-06-25 03:25:00,73.6,71.1,30.15,West,276,0.0,0.0,92,0.00,,,0.00,Wunderground v.1.15,2013-06-25 07:25:00,
2013-06-25 03:30:00,73.5,71.0,30.14,West,276,0.0,0.0,92,0.00,,,0.00,Wunderground v.1.15,2013-06-25 07:30:00,
2013-06-25 03:35:00,73.4,70.9,30.14,West,276,0.0,0.0,92,0.00,,,0.00,Wunderground v.1.15,2013-06-25 07:35:00,
2013-06-25 03:40:00,73.4,70.9,30.13,West,276,0.0,0.0,92,0.00,,,0.00,Wunderground v.1.15,2013-06-25 07:40:00,
2013-06-25 03:45:00,73.3,70.8,30.14,West,276,0.0,0.0,92,0.00,,,0.00,Wunderground v.1.15,2013-06-25 07:45:00,
2013-06-25 03:50:00,73.2,71.1,30.13,West,276,0.0,0.0,93,0.00,,,0.00,Wunderground v.1.15,2013-06-25 07:50:00,
2013-06-25 03:55:00,73.1,70.6,30.14,West,276,0.0,0.0,92,0.00,,,0.00,Wunderground v.1.15,2013-06-25 07:55:00,
2013-06-25 04:05:00,73.0,70.9,30.14,West,276,0.0,0.0,93,0.00,,,0.00,Wunderground v.1.15,2013-06-25 08:05:00,
2013-06-25 04:10:00,73.0,70.9,30.14,West,276,0.0,0.0,93,0.00,,,0.00,Wunderground v.1.15,2013-06-25 08:10:00,
2013-06-25 04:15:00,73.0,70.9,30.14,West,276,0.0,0.0,93,0.00,,,0.00,Wunderground v.1.15,2013-06-25 08:15:00,
2013-06-25 04:20:00,72.9,70.8,30.14,West,276,0.0,0.0,93,0.00,,,0.00,Wunderground v.1.15,2013-06-25 08:20:00,
2013-06-25 04:25:00,72.9,70.8,30.14,West,276,0.0,0.0,93,0.00,,,0.00,Wunderground v.1.15,2013-06-25 08:25:00,
2013-06-25 04:30:00,72.9,70.8,30.14,West,276,0.0,0.0,93,0.00,,,0.00,Wunderground v.1.15,2013-06-25 08:30:00,
2013-06-25 04:40:00,72.7,70.6,30.13,West,276,0.0,0.0,93,0.00,,,0.00,Wunderground v.1.15,2013-06-25 08:40:00,
2013-06-25 04:45:00,72.6,70.5,30.13,West,276,0.0,0.0,93,0.00,,,0.00,Wunderground v.1.15,2013-06-25 08:45:00,
2013-06-25 04:55:00,72.5,70.4,30.13,West,276,0.0,0.0,93,0.00,,,0.00,Wunderground v.1.15,2013-06-25 08:55:00,
2013-06-25 05:00:00,72.4,70.6,30.12,West,276,0.0,0.0,94,0.00,,,0.00,Wunderground v.1.15,2013-06-25 09:00:00,
2013-06-25 05:10:00,72.3,70.5,30.13,West,276,0.0,0.0,94,0.00,,,0.00,Wunderground v.1.15,2013-06-25 09:10:00,
2013-06-25 05:15:00,72.2,70.4,30.13,West,276,0.0,0.0,94,0.00,,,0.00,Wunderground v.1.15,2013-06-25 09:15:00,
2013-06-25 05:20:00,72.1,70.3,30.13,West,276,0.0,0.0,94,0.00,,,0.00,Wunderground v.1.15,2013-06-25 09:20:00,
2013-06-25 05:25:00,72.1,70.3,30.13,West,276,0.0,0.0,94,0.00,,,0.00,Wunderground v.1.15,2013-06-25 09:25:00,
2013-06-25 05:30:00,72.0,70.2,30.13,West,276,0.0,0.0,94,0.00,,,0.00,Wunderground v.1.15,2013-06-25 09:30:00,
2013-06-25 05:35:00,72.0,70.2,30.13,West,276,0.0,0.0,94,0.00,,,0.00,Wunderground v.1.15,2013-06-25 09:35:00,
2013-06-25 05:40:00,71.9,70.1,30.13,West,276,0.0,0.0,94,0.00,,,0.00,Wunderground v.1.15,2013-06-25 09:40:00,
2013-06-25 05:45:00,71.8,70.0,30.14,West,276,0.0,0.0,94,0.00,,,0.00,Wunderground v.1.15,2013-06-25 09:45:00,
2013-06-25 05:50:00,71.8,70.0,30.13,West,276,0.0,0.0,94,0.00,,,0.00,Wunderground v.1.15,2013-06-25 09:50:00,
2013-06-25 05:55:00,71.7,69.9,30.13,West,276,0.0,0.0,94,0.00,,,0.00,Wunderground v.1.15,2013-06-25 09:55:00,
2013-06-25 06:00:00,71.7,69.9,30.13,WNW,301,0.0,0.0,94,0.00,,,0.00,Wunderground v.1.15,2013-06-25 10:00:00,
2013-06-25 06:05:00,71.6,69.8,30.13,WSW,243,0.0,0.0,94,0.00,,,0.00,Wunderground v.1.15,2013-06-25 10:05:00,
2013-06-25 06:15:00,71.4,69.6,30.14,WSW,243,0.0,0.0,94,0.00,,,0.00,Wunderground v.1.15,2013-06-25 10:15:00,
2013-06-25 06:20:00,71.4,69.6,30.13,WSW,243,0.0,0.0,94,0.00,,,0.00,Wunderground v.1.15,2013-06-25 10:20:00,
2013-06-25 06:25:00,71.3,69.5,30.14,WSW,243,0.0,0.0,94,0.00,,,0.00,Wunderground v.1.15,2013-06-25 10:25:00,
2013-06-25 06:30:00,71.4,69.6,30.14,WSW,243,0.0,0.0,94,0.00,,,0.00,Wunderground v.1.15,2013-06-25 10:30:00,
2013-06-25 06:35:00,71.5,69.7,30.14,WSW,243,0.0,0.0,94,0.00,,,0.00,Wunderground v.1.15,2013-06-25 10:35:00,
2013-06-25 06:40:00,71.5,70.0,30.14,WSW,243,0.0,0.0,95,0.00,,,0.00,Wunderground v.1.15,2013-06-25 10:40:00,
2013-06-25 06:45:00,71.5,69.7,30.14,WSW,243,0.0,0.0,94,0.00,,,0.00,Wunderground v.1.15,2013-06-25 10:45:00,
2013-06-25 06:50:00,71.6,70.1,30.14,WSW,243,0.0,0.0,95,0.00,,,0.00,Wunderground v.1.15,2013-06-25 10:50:00,
2013-06-25 06:55:00,71.8,70.3,30.14,WSW,243,0.0,0.0,95,0.00,,,0.00,Wunderground v.1.15,2013-06-25 10:55:00,
2013-06-25 07:00:00,72.2,70.7,30.15,WSW,243,0.0,0.0,95,0.00,,,0.00,Wunderground v.1.15,2013-06-25 11:00:00,
2013-06-25 07:05:00,72.3,70.8,30.15,WSW,243,0.0,0.0,95,0.00,,,0.00,Wunderground v.1.15,2013-06-25 11:05:00,
2013-06-25 07:15:00,72.3,70.8,30.15,WSW,243,0.0,0.0,95,0.00,,,0.00,Wunderground v.1.15,2013-06-25 11:15:00,
2013-06-25 07:20:00,72.3,70.8,30.16,WSW,243,0.0,0.0,95,0.00,,,0.00,Wunderground v.1.15,2013-06-25 11:20:00,
2013-06-25 07:25:00,72.3,70.8,30.16,WSW,243,0.0,0.0,95,0.00,,,0.00,Wunderground v.1.15,2013-06-25 11:25:00,
2013-06-25 07:30:00,72.4,70.9,30.16,WSW,243,0.0,0.0,95,0.00,,,0.00,Wunderground v.1.15,2013-06-25 11:30:00,
2013-06-25 07:35:00,72.4,70.9,30.16,ENE,72,0.0,0.0,95,0.00,,,0.00,Wunderground v.1.15,2013-06-25 11:35:00,
2013-06-25 07:40:00,72.6,71.1,30.16,ENE,72,0.0,1.0,95,0.00,,,0.00,Wunderground v.1.15,2013-06-25 11:40:00,
2013-06-25 07:45:00,73.0,71.8,30.16,ENE,72,0.0,1.0,96,0.00,,,0.00,Wunderground v.1.15,2013-06-25 11:45:00,
2013-06-25 07:50:00,73.3,72.1,30.17,ENE,72,0.0,0.0,96,0.00,,,0.00,Wunderground v.1.15,2013-06-25 11:50:00,
2013-06-25 07:55:00,73.5,72.3,30.17,ENE,72,0.0,0.0,96,0.00,,,0.00,Wunderground v.1.15,2013-06-25 11:55:00,
2013-06-25 08:00:00,74.1,72.9,30.17,ESE,112,0.0,0.0,96,0.00,,,0.00,Wunderground v.1.15,2013-06-25 12:00:00,
2013-06-25 08:10:00,75.0,73.8,30.17,ESE,112,0.0,2.0,96,0.00,,,0.00,Wunderground v.1.15,2013-06-25 12:10:00,
2013-06-25 08:15:00,75.5,74.3,30.18,ESE,112,0.0,2.0,96,0.00,,,0.00,Wunderground v.1.15,2013-06-25 12:15:00,
2013-06-25 08:20:00,75.9,74.7,30.18,ESE,112,0.0,2.0,96,0.00,,,0.00,Wunderground v.1.15,2013-06-25 12:20:00,
2013-06-25 08:25:00,76.3,75.1,30.18,ESE,112,0.0,2.0,96,0.00,,,0.00,Wunderground v.1.15,2013-06-25 12:25:00,
2013-06-25 08:30:00,76.7,75.5,30.18,ESE,112,0.0,2.0,96,0.00,,,0.00,Wunderground v.1.15,2013-06-25 12:30:00,
2013-06-25 08:40:00,77.2,76.0,30.18,ESE,112,0.0,2.0,96,0.00,,,0.00,Wunderground v.1.15,2013-06-25 12:40:00,
2013-06-25 08:45:00,77.5,76.3,30.18,ESE,112,0.0,2.0,96,0.00,,,0.00,Wunderground v.1.15,2013-06-25 12:45:00,
2013-06-25 08:55:00,78.3,77.1,30.19,NNW,342,0.0,2.0,96,0.00,,,0.00,Wunderground v.1.15,2013-06-25 12:55:00,
2013-06-25 09:00:00,78.5,76.9,30.19,NNW,338,1.0,1.0,95,0.00,,,0.00,Wunderground v.1.15,2013-06-25 13:00:00,
2013-06-25 09:10:00,79.2,77.3,30.19,NW,321,0.0,2.0,94,0.00,,,0.00,Wunderground v.1.15,2013-06-25 13:10:00,
2013-06-25 09:15:00,79.6,77.4,30.19,West,269,1.0,3.0,93,0.00,,,0.00,Wunderground v.1.15,2013-06-25 13:15:00,
2013-06-25 09:20:00,80.2,77.3,30.19,West,270,1.0,1.0,91,0.00,,,0.00,Wunderground v.1.15,2013-06-25 13:20:00,
2013-06-25 09:30:00,81.2,77.0,30.18,WNW,283,1.0,1.0,87,0.00,,,0.00,Wunderground v.1.15,2013-06-25 13:30:00,
2013-06-25 09:35:00,81.8,77.2,30.19,WNW,283,1.0,2.0,86,0.00,,,0.00,Wunderground v.1.15,2013-06-25 13:35:00,
2013-06-25 09:40:00,82.2,76.9,30.18,West,276,0.0,2.0,84,0.00,,,0.00,Wunderground v.1.15,2013-06-25 13:40:00,
2013-06-25 09:45:00,82.6,76.9,30.19,NW,306,1.0,2.0,83,0.00,,,0.00,Wunderground v.1.15,2013-06-25 13:45:00,
2013-06-25 09:50:00,83.1,76.3,30.18,NW,305,0.0,2.0,80,0.00,,,0.00,Wunderground v.1.15,2013-06-25 13:50:00,
2013-06-25 10:00:00,84.0,75.6,30.19,WNW,300,1.0,1.0,76,0.00,,,0.00,Wunderground v.1.15,2013-06-25 14:00:00,
2013-06-25 10:05:00,84.4,75.2,30.19,NW,313,0.0,3.0,74,0.00,,,0.00,Wunderground v.1.15,2013-06-25 14:05:00,
2013-06-25 10:15:00,85.8,76.5,30.19,WNW,298,0.0,2.0,74,0.00,,,0.00,Wunderground v.1.15,2013-06-25 14:15:00,
2013-06-25 10:20:00,86.1,75.2,30.19,WNW,298,0.0,2.0,70,0.00,,,0.00,Wunderground v.1.15,2013-06-25 14:20:00,
2013-06-25 10:25:00,86.6,74.8,30.19,NNW,333,1.0,2.0,68,0.00,,,0.00,Wunderground v.1.15,2013-06-25 14:25:00,
2013-06-25 10:30:00,86.9,75.1,30.18,NNW,332,1.0,1.0,68,0.00,,,0.00,Wunderground v.1.15,2013-06-25 14:30:00,
2013-06-25 10:35:00,87.3,74.5,30.18,NNW,333,0.0,2.0,66,0.00,,,0.00,Wunderground v.1.15,2013-06-25 14:35:00,
2013-06-25 10:40:00,87.5,73.8,30.18,NNW,347,0.0,2.0,64,0.00,,,0.00,Wunderground v.1.15,2013-06-25 14:40:00,
2013-06-25 10:45:00,87.8,74.6,30.18,NNW,347,0.0,2.0,65,0.00,,,0.00,Wunderground v.1.15,2013-06-25 14:45:00,
2013-06-25 10:50:00,88.0,74.8,30.19,NE,37,0.0,2.0,65,0.00,,,0.00,Wunderground v.1.15,2013-06-25 14:50:00,
2013-06-25 10:55:00,88.1,74.8,30.19,ENE,67,1.0,2.0,65,0.00,,,0.00,Wunderground v.1.15,2013-06-25 14:55:00,
2013-06-25 11:00:00,88.3,74.6,30.19,ENE,74,1.0,1.0,64,0.00,,,0.00,Wunderground v.1.15,2013-06-25 15:00:00,
2013-06-25 11:05:00,88.6,74.4,30.19,ENE,74,1.0,2.0,63,0.00,,,0.00,Wunderground v.1.15,2013-06-25 15:05:00,
2013-06-25 11:10:00,89.0,74.8,30.18,ENE,74,0.0,2.0,63,0.00,,,0.00,Wunderground v.1.15,2013-06-25 15:10:00,
2013-06-25 11:20:00,89.5,74.8,30.18,North,8,0.0,2.0,62,0.00,,,0.00,Wunderground v.1.15,2013-06-25 15:20:00,
2013-06-25 11:25:00,89.7,74.9,30.18,East,79,0.0,2.0,62,0.00,,,0.00,Wunderground v.1.15,2013-06-25 15:25:00,
2013-06-25 11:30:00,89.7,73.5,30.18,East,91,0.0,2.0,59,0.00,,,0.00,Wunderground v.1.15,2013-06-25 15:30:00,
2013-06-25 11:35:00,89.7,74.5,30.18,South,191,0.0,2.0,61,0.00,,,0.00,Wunderground v.1.15,2013-06-25 15:35:00,
2013-06-25 11:40:00,89.4,72.2,30.18,SW,216,1.0,1.0,57,0.00,,,0.00,Wunderground v.1.15,2013-06-25 15:40:00,
2013-06-25 11:45:00,89.3,73.1,30.18,SW,216,1.0,2.0,59,0.00,,,0.00,Wunderground v.1.15,2013-06-25 15:45:00,
2013-06-25 11:50:00,89.5,73.3,30.19,WNW,285,1.0,3.0,59,0.00,,,0.00,Wunderground v.1.15,2013-06-25 15:50:00,
2013-06-25 11:55:00,89.7,72.4,30.18,WSW,237,1.0,3.0,57,0.00,,,0.00,Wunderground v.1.15,2013-06-25 15:55:00,
2013-06-25 12:00:00,89.6,72.3,30.18,WSW,237,1.0,1.0,57,0.00,,,0.00,Wunderground v.1.15,2013-06-25 16:00:00,
2013-06-25 12:10:00,88.9,72.7,30.17,SW,236,1.0,1.0,59,0.00,,,0.00,Wunderground v.1.15,2013-06-25 16:10:00,
2013-06-25 12:15:00,88.9,72.2,30.18,SW,235,1.0,3.0,58,0.00,,,0.00,Wunderground v.1.15,2013-06-25 16:15:00,
2013-06-25 12:25:00,89.0,72.3,30.17,ESE,105,1.0,2.0,58,0.00,,,0.00,Wunderground v.1.15,2013-06-25 16:25:00,
2013-06-25 12:30:00,89.3,72.1,30.17,ESE,110,1.0,1.0,57,0.00,,,0.00,Wunderground v.1.15,2013-06-25 16:30:00,
2013-06-25 12:35:00,89.7,71.9,30.17,SW,223,1.0,2.0,56,0.00,,,0.00,Wunderground v.1.15,2013-06-25 16:35:00,
2013-06-25 12:40:00,89.6,70.8,30.17,NW,318,2.0,2.0,54,0.00,,,0.00,Wunderground v.1.15,2013-06-25 16:40:00,
2013-06-25 12:45:00,89.7,69.2,30.17,South,180,2.0,2.0,51,0.00,,,0.00,Wunderground v.1.15,2013-06-25 16:45:00,
2013-06-25 12:50:00,89.9,68.2,30.16,South,175,1.0,2.0,49,0.00,,,0.00,Wunderground v.1.15,2013-06-25 16:50:00,
2013-06-25 12:55:00,90.1,67.2,30.16,East,101,1.0,2.0,47,0.00,,,0.00,Wunderground v.1.15,2013-06-25 16:55:00,
2013-06-25 13:00:00,90.4,68.6,30.16,East,101,1.0,1.0,49,0.00,,,0.00,Wunderground v.1.15,2013-06-25 17:00:00,
2013-06-25 13:05:00,90.9,72.0,30.16,WNW,288,0.0,2.0,54,0.00,,,0.00,Wunderground v.1.15,2013-06-25 17:05:00,
2013-06-25 13:10:00,91.1,70.5,30.16,WNW,292,1.0,1.0,51,0.00,,,0.00,Wunderground v.1.15,2013-06-25 17:10:00,
2013-06-25 13:15:00,91.2,71.1,30.16,South,175,1.0,2.0,52,0.00,,,0.00,Wunderground v.1.15,2013-06-25 17:15:00,
2013-06-25 13:20:00,91.2,72.2,30.16,SSW,194,0.0,4.0,54,0.00,,,0.00,Wunderground v.1.15,2013-06-25 17:20:00,
2013-06-25 13:25:00,91.1,71.0,30.15,WNW,303,1.0,4.0,52,0.00,,,0.00,Wunderground v.1.15,2013-06-25 17:25:00,
2013-06-25 13:30:00,91.4,73.0,30.15,WSW,241,1.0,4.0,55,0.00,,,0.00,Wunderground v.1.15,2013-06-25 17:30:00,
2013-06-25 13:35:00,91.2,70.0,30.15,SW,234,0.0,4.0,50,0.00,,,0.00,Wunderground v.1.15,2013-06-25 17:35:00,
2013-06-25 13:40:00,91.1,69.9,30.15,SW,234,0.0,2.0,50,0.00,,,0.00,Wunderground v.1.15,2013-06-25 17:40:00,
2013-06-25 13:45:00,91.6,70.9,30.15,NW,309,1.0,2.0,51,0.00,,,0.00,Wunderground v.1.15,2013-06-25 17:45:00,
2013-06-25 13:50:00,91.9,69.4,30.15,NW,308,2.0,2.0,48,0.00,,,0.00,Wunderground v.1.15,2013-06-25 17:50:00,
2013-06-25 13:55:00,92.0,70.1,30.14,West,263,1.0,2.0,49,0.00,,,0.00,Wunderground v.1.15,2013-06-25 17:55:00,
2013-06-25 14:05:00,92.7,70.1,30.14,WSW,258,1.0,2.0,48,0.00,,,0.00,Wunderground v.1.15,2013-06-25 18:05:00,
2013-06-25 14:10:00,92.7,70.1,30.14,SW,216,1.0,1.0,48,0.00,,,0.00,Wunderground v.1.15,2013-06-25 18:10:00,
2013-06-25 14:20:00,92.8,72.0,30.14,SSW,212,1.0,1.0,51,0.00,,,0.00,Wunderground v.1.15,2013-06-25 18:20:00,
2013-06-25 14:25:00,92.9,69.7,30.13,SSW,197,2.0,2.0,47,0.00,,,0.00,Wunderground v.1.15,2013-06-25 18:25:00,
2013-06-25 14:30:00,93.1,72.3,30.13,South,175,1.0,1.0,51,0.00,,,0.00,Wunderground v.1.15,2013-06-25 18:30:00,
2013-06-25 14:35:00,92.9,72.1,30.13,SSW,208,1.0,2.0,51,0.00,,,0.00,Wunderground v.1.15,2013-06-25 18:35:00,
2013-06-25 14:40:00,92.3,72.1,30.13,SSW,200,1.0,2.0,52,0.00,,,0.00,Wunderground v.1.15,2013-06-25 18:40:00,
2013-06-25 14:45:00,91.7,72.1,30.13,SSW,202,1.0,2.0,53,0.00,,,0.00,Wunderground v.1.15,2013-06-25 18:45:00,
2013-06-25 14:55:00,91.2,73.3,30.13,West,281,0.0,5.0,56,0.00,,,0.00,Wunderground v.1.15,2013-06-25 18:55:00,
2013-06-25 15:00:00,91.7,76.3,30.13,WNW,300,2.0,5.0,61,0.00,,,0.00,Wunderground v.1.15,2013-06-25 19:00:00,
2013-06-25 15:05:00,91.3,75.5,30.13,NW,322,2.0,5.0,60,0.00,,,0.00,Wunderground v.1.15,2013-06-25 19:05:00,
2013-06-25 15:10:00,90.7,74.4,30.12,WSW,256,2.0,2.0,59,0.00,,,0.00,Wunderground v.1.15,2013-06-25 19:10:00,
2013-06-25 15:20:00,90.4,75.1,30.11,WSW,258,2.0,2.0,61,0.00,,,0.00,Wunderground v.1.15,2013-06-25 19:20:00,
2013-06-25 15:25:00,90.1,75.3,30.12,WNW,301,2.0,2.0,62,0.00,,,0.00,Wunderground v.1.15,2013-06-25 19:25:00,
2013-06-25 15:30:00,89.9,75.6,30.12,North,3,1.0,4.0,63,0.00,,,0.00,Wunderground v.1.15,2013-06-25 19:30:00,
2013-06-25 15:35:00,90.2,75.9,30.12,West,276,1.0,4.0,63,0.00,,,0.00,Wunderground v.1.15,2013-06-25 19:35:00,
2013-06-25 15:40:00,90.6,75.8,30.11,NNW,343,1.0,10.0,62,0.00,,,0.00,Wunderground v.1.15,2013-06-25 19:40:00,
2013-06-25 15:45:00,91.2,75.9,30.11,NNE,21,1.0,10.0,61,0.00,,,0.00,Wunderground v.1.15,2013-06-25 19:45:00,
2013-06-25 15:55:00,91.4,75.6,30.11,West,265,2.0,7.0,60,0.00,,,0.00,Wunderground v.1.15,2013-06-25 19:55:00,
2013-06-25 16:00:00,91.7,76.8,30.11,SSW,205,2.0,2.0,62,0.00,,,0.00,Wunderground v.1.15,2013-06-25 20:00:00,
2013-06-25 16:05:00,91.8,76.4,30.11,WNW,291,1.0,2.0,61,0.00,,,0.00,Wunderground v.1.15,2013-06-25 20:05:00,
2013-06-25 16:10:00,91.9,75.0,30.10,West,275,2.0,2.0,58,0.00,,,0.00,Wunderground v.1.15,2013-06-25 20:10:00,
2013-06-25 16:15:00,91.9,75.0,30.10,NW,326,2.0,11.0,58,0.00,,,0.00,Wunderground v.1.15,2013-06-25 20:15:00,
2013-06-25 16:20:00,91.7,75.3,30.09,WSW,246,2.0,2.0,59,0.00,,,0.00,Wunderground v.1.15,2013-06-25 20:20:00,
2013-06-25 16:30:00,91.9,75.0,30.09,WSW,245,1.0,1.0,58,0.00,,,0.00,Wunderground v.1.15,2013-06-25 20:30:00,
2013-06-25 16:35:00,91.7,74.8,30.09,SSW,192,1.0,2.0,58,0.00,,,0.00,Wunderground v.1.15,2013-06-25 20:35:00,
2013-06-25 16:40:00,91.6,74.7,30.09,WSW,248,1.0,1.0,58,0.00,,,0.00,Wunderground v.1.15,2013-06-25 20:40:00,
2013-06-25 16:45:00,91.7,75.8,30.09,WSW,253,1.0,2.0,60,0.00,,,0.00,Wunderground v.1.15,2013-06-25 20:45:00,
2013-06-25 16:50:00,92.0,75.1,30.09,WNW,295,1.0,1.0,58,0.00,,,0.00,Wunderground v.1.15,2013-06-25 20:50:00,
2013-06-25 16:55:00,92.1,74.1,30.08,NW,322,2.0,5.0,56,0.00,,,0.00,Wunderground v.1.15,2013-06-25 20:55:00,
2013-06-25 17:00:00,91.9,75.0,30.08,West,270,2.0,2.0,58,0.00,,,0.00,Wunderground v.1.15,2013-06-25 21:00:00,
2013-06-25 17:05:00,91.7,74.3,30.08,WNW,287,1.0,2.0,57,0.00,,,0.00,Wunderground v.1.15,2013-06-25 21:05:00,
2013-06-25 17:10:00,91.8,74.4,30.08,NNW,340,1.0,1.0,57,0.00,,,0.00,Wunderground v.1.15,2013-06-25 21:10:00,
2013-06-25 17:15:00,91.7,75.3,30.08,NNW,327,1.0,2.0,59,0.00,,,0.00,Wunderground v.1.15,2013-06-25 21:15:00,
2013-06-25 17:20:00,91.8,74.9,30.08,SW,225,0.0,2.0,58,0.00,,,0.00,Wunderground v.1.15,2013-06-25 21:20:00,
2013-06-25 17:25:00,91.8,74.4,30.08,NNW,339,1.0,2.0,57,0.00,,,0.00,Wunderground v.1.15,2013-06-25 21:25:00,
2013-06-25 17:35:00,91.1,74.8,30.08,SSW,213,2.0,4.0,59,0.00,,,0.00,Wunderground v.1.15,2013-06-25 21:35:00,
2013-06-25 17:40:00,90.8,75.0,30.08,South,190,2.0,2.0,60,0.00,,,0.00,Wunderground v.1.15,2013-06-25 21:40:00,
2013-06-25 17:45:00,90.4,74.1,30.07,WSW,257,3.0,4.0,59,0.00,,,0.00,Wunderground v.1.15,2013-06-25 21:45:00,
2013-06-25 17:50:00,90.0,74.2,30.07,NNW,334,3.0,3.0,60,0.00,,,0.00,Wunderground v.1.15,2013-06-25 21:50:00,
2013-06-25 17:55:00,90.1,74.8,30.08,SW,229,1.0,3.0,61,0.00,,,0.00,Wunderground v.1.15,2013-06-25 21:55:00,
2013-06-25 18:00:00,90.0,75.2,30.08,SW,223,2.0,2.0,62,0.00,,,0.00,Wunderground v.1.15,2013-06-25 22:00:00,
2013-06-25 18:05:00,90.0,75.7,30.08,SSW,193,2.0,2.0,63,0.00,,,0.00,Wunderground v.1.15,2013-06-25 22:05:00,
2013-06-25 18:10:00,90.0,75.7,30.08,NW,308,1.0,1.0,63,0.00,,,0.00,Wunderground v.1.15,2013-06-25 22:10:00,
2013-06-25 18:20:00,89.6,75.3,30.07,WSW,247,2.0,2.0,63,0.00,,,0.00,Wunderground v.1.15,2013-06-25 22:20:00,
2013-06-25 18:25:00,89.4,75.6,30.07,WSW,241,2.0,2.0,64,0.00,,,0.00,Wunderground v.1.15,2013-06-25 22:25:00,
2013-06-25 18:30:00,89.2,75.0,30.07,WSW,249,1.0,1.0,63,0.00,,,0.00,Wunderground v.1.15,2013-06-25 22:30:00,
2013-06-25 18:35:00,89.2,75.0,30.07,SW,233,1.0,2.0,63,0.00,,,0.00,Wunderground v.1.15,2013-06-25 22:35:00,
2013-06-25 18:40:00,88.9,74.7,30.08,SSW,202,1.0,1.0,63,0.00,,,0.00,Wunderground v.1.15,2013-06-25 22:40:00,
2013-06-25 18:45:00,88.7,74.5,30.08,NW,316,1.0,2.0,63,0.00,,,0.00,Wunderground v.1.15,2013-06-25 22:45:00,
2013-06-25 18:50:00,88.6,74.4,30.08,WSW,249,1.0,1.0,63,0.00,,,0.00,Wunderground v.1.15,2013-06-25 22:50:00,
2013-06-25 18:55:00,88.4,74.2,30.08,WNW,294,1.0,2.0,63,0.00,,,0.00,Wunderground v.1.15,2013-06-25 22:55:00,
2013-06-25 19:00:00,88.2,73.5,30.08,WNW,303,0.0,4.0,62,0.00,,,0.00,Wunderground v.1.15,2013-06-25 23:00:00,
2013-06-25 19:05:00,87.9,73.7,30.08,SW,233,1.0,4.0,63,0.00,,,0.00,Wunderground v.1.15,2013-06-25 23:05:00,
2013-06-25 19:10:00,87.8,73.6,30.08,West,281,1.0,3.0,63,0.00,,,0.00,Wunderground v.1.15,2013-06-25 23:10:00,
2013-06-25 19:15:00,87.5,73.3,30.09,WNW,290,1.0,3.0,63,0.00,,,0.00,Wunderground v.1.15,2013-06-25 23:15:00,
2013-06-25 19:20:00,87.3,73.2,30.09,SSW,208,1.0,1.0,63,0.00,,,0.00,Wunderground v.1.15,2013-06-25 23:20:00,
2013-06-25 19:25:00,86.8,73.2,30.10,NNW,333,1.0,2.0,64,0.00,,,0.00,Wunderground v.1.15,2013-06-25 23:25:00,
2013-06-25 19:30:00,86.5,72.9,30.10,WNW,289,0.0,2.0,64,0.00,,,0.00,Wunderground v.1.15,2013-06-25 23:30:00,
2013-06-25 19:35:00,86.1,72.5,30.10,WSW,258,0.0,2.0,64,0.00,,,0.00,Wunderground v.1.15,2013-06-25 23:35:00,
2013-06-25 19:40:00,85.7,72.1,30.10,West,270,1.0,1.0,64,0.00,,,0.00,Wunderground v.1.15,2013-06-25 23:40:00,
2013-06-25 19:50:00,84.9,71.8,30.11,NW,315,0.0,2.0,65,0.00,,,0.00,Wunderground v.1.15,2013-06-25 23:50:00,
2013-06-25 19:55:00,84.6,71.5,30.11,WNW,302,0.0,2.0,65,0.00,,,0.00,Wunderground v.1.15,2013-06-25 23:55:00,
2013-06-25 20:00:00,84.3,71.7,30.11,WNW,302,0.0,2.0,66,0.00,,,0.00,Wunderground v.1.15,2013-06-26 00:00:00,
2013-06-25 20:05:00,84.1,71.5,30.11,WNW,302,0.0,2.0,66,0.00,,,0.00,Wunderground v.1.15,2013-06-26 00:05:00,
2013-06-25 20:10:00,83.9,71.3,30.11,WNW,302,0.0,2.0,66,0.00,,,0.00,Wunderground v.1.15,2013-06-26 00:10:00,
2013-06-25 20:15:00,83.6,71.5,30.11,WNW,302,0.0,2.0,67,0.00,,,0.00,Wunderground v.1.15,2013-06-26 00:15:00,
2013-06-25 20:25:00,83.0,71.3,30.10,WNW,295,0.0,2.0,68,0.00,,,0.00,Wunderground v.1.15,2013-06-26 00:25:00,
2013-06-25 20:30:00,82.6,71.4,30.11,West,271,0.0,2.0,69,0.00,,,0.00,Wunderground v.1.15,2013-06-26 00:30:00,
2013-06-25 20:35:00,82.3,71.1,30.11,East,95,0.0,2.0,69,0.00,,,0.00,Wunderground v.1.15,2013-06-26 00:35:00,
2013-06-25 20:40:00,82.1,71.3,30.11,East,99,0.0,2.0,70,0.00,,,0.00,Wunderground v.1.15,2013-06-26 00:40:00,
2013-06-25 20:45:00,81.8,71.1,30.11,East,99,0.0,2.0,70,0.00,,,0.00,Wunderground v.1.15,2013-06-26 00:45:00,
2013-06-25 20:55:00,81.2,70.9,30.10,SSE,166,0.0,2.0,71,0.00,,,0.00,Wunderground v.1.15,2013-06-26 00:55:00,
2013-06-25 21:00:00,81.0,70.7,30.10,SSE,166,0.0,2.0,71,0.00,,,0.00,Wunderground v.1.15,2013-06-26 01:00:00,
2013-06-25 21:05:00,80.8,70.9,30.10,SSE,166,0.0,2.0,72,0.00,,,0.00,Wunderground v.1.15,2013-06-26 01:05:00,
2013-06-25 21:10:00,80.6,70.7,30.11,SSE,166,0.0,2.0,72,0.00,,,0.00,Wunderground v.1.15,2013-06-26 01:10:00,
2013-06-25 21:15:00,80.4,70.9,30.10,SSE,166,0.0,2.0,73,0.00,,,0.00,Wunderground v.1.15,2013-06-26 01:15:00,
2013-06-25 21:20:00,80.2,70.8,30.10,SW,227,0.0,2.0,73,0.00,,,0.00,Wunderground v.1.15,2013-06-26 01:20:00,
2013-06-25 21:25:00,80.0,71.0,30.10,SW,227,0.0,2.0,74,0.00,,,0.00,Wunderground v.1.15,2013-06-26 01:25:00,
2013-06-25 21:30:00,79.8,71.2,30.11,SW,227,0.0,2.0,75,0.00,,,0.00,Wunderground v.1.15,2013-06-26 01:30:00,
2013-06-25 21:35:00,79.5,70.9,30.10,SW,227,0.0,2.0,75,0.00,,,0.00,Wunderground v.1.15,2013-06-26 01:35:00,
2013-06-25 21:40:00,79.3,71.1,30.10,SW,227,0.0,2.0,76,0.00,,,0.00,Wunderground v.1.15,2013-06-26 01:40:00,
2013-06-25 21:45:00,79.1,70.9,30.11,SW,227,0.0,2.0,76,0.00,,,0.00,Wunderground v.1.15,2013-06-26 01:45:00,
2013-06-25 21:50:00,78.9,71.1,30.11,SW,227,0.0,2.0,77,0.00,,,0.00,Wunderground v.1.15,2013-06-26 01:50:00,
2013-06-25 21:55:00,78.7,70.9,30.11,SW,227,0.0,2.0,77,0.00,,,0.00,Wunderground v.1.15,2013-06-26 01:55:00,
2013-06-25 22:00:00,78.6,70.8,30.11,SW,227,0.0,2.0,77,0.00,,,0.00,Wunderground v.1.15,2013-06-26 02:00:00,
2013-06-25 22:05:00,78.4,70.6,30.11,SW,227,0.0,2.0,77,0.00,,,0.00,Wunderground v.1.15,2013-06-26 02:05:00,
2013-06-25 22:15:00,78.1,70.7,30.12,SW,227,0.0,2.0,78,0.00,,,0.00,Wunderground v.1.15,2013-06-26 02:15:00,
2013-06-25 22:20:00,77.9,70.5,30.13,SW,227,0.0,2.0,78,0.00,,,0.00,Wunderground v.1.15,2013-06-26 02:20:00,
2013-06-25 22:25:00,77.7,70.7,30.13,SW,227,0.0,2.0,79,0.00,,,0.00,Wunderground v.1.15,2013-06-26 02:25:00,
2013-06-25 22:30:00,77.6,70.6,30.13,SW,229,0.0,2.0,79,0.00,,,0.00,Wunderground v.1.15,2013-06-26 02:30:00,
2013-06-25 22:35:00,77.5,70.8,30.12,SW,229,0.0,2.0,80,0.00,,,0.00,Wunderground v.1.15,2013-06-26 02:35:00,
2013-06-25 22:40:00,77.3,70.6,30.12,SW,229,0.0,2.0,80,0.00,,,0.00,Wunderground v.1.15,2013-06-26 02:40:00,
2013-06-25 22:45:00,77.2,70.9,30.13,SW,229,0.0,2.0,81,0.00,,,0.00,Wunderground v.1.15,2013-06-26 02:45:00,
2013-06-25 22:55:00,77.0,71.1,30.13,SW,229,0.0,2.0,82,0.00,,,0.00,Wunderground v.1.15,2013-06-26 02:55:00,
2013-06-25 23:00:00,77.0,71.4,30.12,SW,229,0.0,2.0,83,0.00,,,0.00,Wunderground v.1.15,2013-06-26 03:00:00,
2013-06-25 23:05:00,76.9,71.3,30.12,SW,229,0.0,2.0,83,0.00,,,0.00,Wunderground v.1.15,2013-06-26 03:05:00,
2013-06-25 23:10:00,76.8,71.6,30.12,SW,229,0.0,2.0,84,0.00,,,0.00,Wunderground v.1.15,2013-06-26 03:10:00,
2013-06-25 23:15:00,76.7,71.5,30.12,SW,229,0.0,2.0,84,0.00,,,0.00,Wunderground v.1.15,2013-06-26 03:15:00,
2013-06-25 23:20:00,76.5,71.7,30.12,SW,229,0.0,2.0,85,0.00,,,0.00,Wunderground v.1.15,2013-06-26 03:20:00,
2013-06-25 23:25:00,76.4,71.6,30.12,SW,229,0.0,2.0,85,0.00,,,0.00,Wunderground v.1.15,2013-06-26 03:25:00,
2013-06-25 23:30:00,76.3,71.5,30.11,SW,229,0.0,2.0,85,0.00,,,0.00,Wunderground v.1.15,2013-06-26 03:30:00,
2013-06-25 23:35:00,76.2,71.4,30.11,SW,229,0.0,2.0,85,0.00,,,0.00,Wunderground v.1.15,2013-06-26 03:35:00,
2013-06-25 23:40:00,76.1,71.3,30.11,SW,229,0.0,2.0,85,0.00,,,0.00,Wunderground v.1.15,2013-06-26 03:40:00,
2013-06-25 23:45:00,76.0,71.5,30.11,SW,229,0.0,2.0,86,0.00,,,0.00,Wunderground v.1.15,2013-06-26 03:45:00,
2013-06-25 23:50:00,75.9,71.4,30.11,SW,229,0.0,2.0,86,0.00,,,0.00,Wunderground v.1.15,2013-06-26 03:50:00,
2013-06-25 23:55:00,75.8,71.3,30.11,SW,229,0.0,2.0,86,0.00,,,0.00,Wunderground v.1.15,2013-06-26 03:55:00,